sensor_id;sensor_type;location;lat;lon;timestamp;P1;durP1;ratioP1;P2;durP2;ratioP2
20181;SDS011;10250;50.756;6.172;2023-02-18T00:00:33;9.27;;;2.63;;
20181;SDS011;10250;50.756;6.172;2023-02-18T00:02:34;13.43;;;3.20;;
20181;SDS011;10250;50.756;6.172;2023-02-18T00:04:35;9.67;;;2.40;;
20181;SDS011;10250;50.756;6.172;2023-02-18T00:06:36;12.20;;;3.30;;
20181;SDS011;10250;50.756;6.172;2023-02-18T00:08:38;9.93;;;2.63;;
20181;SDS011;10250;50.756;6.172;2023-02-18T00:10:41;9.37;;;2.37;;
20181;SDS011;10250;50.756;6.172;2023-02-18T00:12:43;10.93;;;2.97;;
20181;SDS011;10250;50.756;6.172;2023-02-18T00:14:43;8.23;;;2.40;;
20181;SDS011;10250;50.756;6.172;2023-02-18T00:16:45;10.10;;;2.37;;
20181;SDS011;10250;50.756;6.172;2023-02-18T00:18:46;8.70;;;2.17;;
20181;SDS011;10250;50.756;6.172;2023-02-18T00:20:47;11.20;;;2.60;;
20181;SDS011;10250;50.756;6.172;2023-02-18T00:22:48;10.33;;;2.43;;
20181;SDS011;10250;50.756;6.172;2023-02-18T00:24:49;10.30;;;2.80;;
20181;SDS011;10250;50.756;6.172;2023-02-18T00:26:50;11.83;;;2.70;;
20181;SDS011;10250;50.756;6.172;2023-02-18T00:28:52;11.87;;;2.60;;
20181;SDS011;10250;50.756;6.172;2023-02-18T00:30:53;11.67;;;2.60;;
20181;SDS011;10250;50.756;6.172;2023-02-18T00:32:54;11.23;;;2.53;;
20181;SDS011;10250;50.756;6.172;2023-02-18T00:34:55;12.53;;;2.87;;
20181;SDS011;10250;50.756;6.172;2023-02-18T00:36:57;10.40;;;2.40;;
20181;SDS011;10250;50.756;6.172;2023-02-18T00:38:58;9.40;;;2.40;;
20181;SDS011;10250;50.756;6.172;2023-02-18T00:41:00;8.90;;;2.20;;
20181;SDS011;10250;50.756;6.172;2023-02-18T00:43:01;9.60;;;2.60;;
20181;SDS011;10250;50.756;6.172;2023-02-18T00:45:02;9.57;;;2.40;;
20181;SDS011;10250;50.756;6.172;2023-02-18T00:47:03;9.47;;;1.93;;
20181;SDS011;10250;50.756;6.172;2023-02-18T00:49:04;11.17;;;2.33;;
20181;SDS011;10250;50.756;6.172;2023-02-18T00:51:05;9.30;;;2.30;;
20181;SDS011;10250;50.756;6.172;2023-02-18T00:53:06;9.67;;;2.57;;
20181;SDS011;10250;50.756;6.172;2023-02-18T00:55:07;9.97;;;2.40;;
20181;SDS011;10250;50.756;6.172;2023-02-18T00:57:08;9.97;;;2.83;;
20181;SDS011;10250;50.756;6.172;2023-02-18T00:59:09;9.47;;;2.47;;
20181;SDS011;10250;50.756;6.172;2023-02-18T01:01:10;7.27;;;2.00;;
20181;SDS011;10250;50.756;6.172;2023-02-18T01:03:12;9.50;;;2.30;;
20181;SDS011;10250;50.756;6.172;2023-02-18T01:05:13;10.60;;;2.40;;
20181;SDS011;10250;50.756;6.172;2023-02-18T01:07:14;8.57;;;2.10;;
20181;SDS011;10250;50.756;6.172;2023-02-18T01:09:15;9.37;;;2.33;;
20181;SDS011;10250;50.756;6.172;2023-02-18T01:11:16;9.17;;;2.20;;
20181;SDS011;10250;50.756;6.172;2023-02-18T01:13:17;10.47;;;2.77;;
20181;SDS011;10250;50.756;6.172;2023-02-18T01:15:18;10.33;;;2.50;;
20181;SDS011;10250;50.756;6.172;2023-02-18T01:17:19;10.73;;;2.73;;
20181;SDS011;10250;50.756;6.172;2023-02-18T01:19:20;9.47;;;2.50;;
20181;SDS011;10250;50.756;6.172;2023-02-18T01:21:21;7.60;;;1.90;;
20181;SDS011;10250;50.756;6.172;2023-02-18T01:23:22;9.50;;;2.20;;
20181;SDS011;10250;50.756;6.172;2023-02-18T01:25:23;8.27;;;1.87;;
20181;SDS011;10250;50.756;6.172;2023-02-18T01:27:24;9.03;;;2.43;;
20181;SDS011;10250;50.756;6.172;2023-02-18T01:29:25;5.10;;;1.43;;
20181;SDS011;10250;50.756;6.172;2023-02-18T01:31:26;9.50;;;1.87;;
20181;SDS011;10250;50.756;6.172;2023-02-18T01:33:27;6.60;;;1.93;;
20181;SDS011;10250;50.756;6.172;2023-02-18T01:35:28;7.03;;;1.90;;
20181;SDS011;10250;50.756;6.172;2023-02-18T01:37:29;5.33;;;1.50;;
20181;SDS011;10250;50.756;6.172;2023-02-18T01:39:30;5.77;;;1.30;;
20181;SDS011;10250;50.756;6.172;2023-02-18T01:41:31;7.07;;;1.63;;
20181;SDS011;10250;50.756;6.172;2023-02-18T01:43:32;6.33;;;1.77;;
20181;SDS011;10250;50.756;6.172;2023-02-18T01:47:38;7.17;;;1.70;;
20181;SDS011;10250;50.756;6.172;2023-02-18T01:49:38;7.67;;;1.63;;
20181;SDS011;10250;50.756;6.172;2023-02-18T01:51:45;5.77;;;1.43;;
20181;SDS011;10250;50.756;6.172;2023-02-18T01:53:58;5.97;;;1.50;;
20181;SDS011;10250;50.756;6.172;2023-02-18T01:56:01;6.20;;;1.50;;
20181;SDS011;10250;50.756;6.172;2023-02-18T01:58:03;5.83;;;1.50;;
20181;SDS011;10250;50.756;6.172;2023-02-18T02:00:05;6.30;;;1.60;;
20181;SDS011;10250;50.756;6.172;2023-02-18T02:02:09;4.17;;;1.17;;
20181;SDS011;10250;50.756;6.172;2023-02-18T02:04:10;4.60;;;1.40;;
20181;SDS011;10250;50.756;6.172;2023-02-18T02:06:14;3.30;;;1.10;;
20181;SDS011;10250;50.756;6.172;2023-02-18T02:08:15;4.50;;;1.40;;
20181;SDS011;10250;50.756;6.172;2023-02-18T02:10:16;4.40;;;1.33;;
20181;SDS011;10250;50.756;6.172;2023-02-18T02:14:53;2.70;;;1.00;;
20181;SDS011;10250;50.756;6.172;2023-02-18T02:17:03;2.83;;;0.90;;
20181;SDS011;10250;50.756;6.172;2023-02-18T02:36:49;1.47;;;0.80;;
20181;SDS011;10250;50.756;6.172;2023-02-18T02:39:02;2.37;;;0.97;;
20181;SDS011;10250;50.756;6.172;2023-02-18T02:41:09;2.83;;;1.00;;
20181;SDS011;10250;50.756;6.172;2023-02-18T02:47:50;4.23;;;1.30;;
20181;SDS011;10250;50.756;6.172;2023-02-18T02:50:00;3.57;;;1.10;;
20181;SDS011;10250;50.756;6.172;2023-02-18T02:52:08;3.43;;;0.90;;
20181;SDS011;10250;50.756;6.172;2023-02-18T02:56:16;4.87;;;1.17;;
20181;SDS011;10250;50.756;6.172;2023-02-18T02:58:18;2.33;;;0.93;;
20181;SDS011;10250;50.756;6.172;2023-02-18T03:02:54;4.13;;;1.00;;
20181;SDS011;10250;50.756;6.172;2023-02-18T03:11:52;3.30;;;1.10;;
20181;SDS011;10250;50.756;6.172;2023-02-18T03:18:14;2.03;;;0.80;;
20181;SDS011;10250;50.756;6.172;2023-02-18T03:22:22;1.10;;;0.60;;
20181;SDS011;10250;50.756;6.172;2023-02-18T03:24:38;0.77;;;0.53;;
20181;SDS011;10250;50.756;6.172;2023-02-18T03:26:41;0.30;;;0.30;;
20181;SDS011;10250;50.756;6.172;2023-02-18T03:28:44;0.93;;;0.40;;
20181;SDS011;10250;50.756;6.172;2023-02-18T03:30:47;0.33;;;0.30;;
20181;SDS011;10250;50.756;6.172;2023-02-18T03:32:49;0.60;;;0.50;;
20181;SDS011;10250;50.756;6.172;2023-02-18T03:34:53;3.03;;;0.50;;
20181;SDS011;10250;50.756;6.172;2023-02-18T03:36:55;0.37;;;0.27;;
20181;SDS011;10250;50.756;6.172;2023-02-18T03:38:58;1.23;;;0.50;;
20181;SDS011;10250;50.756;6.172;2023-02-18T03:40:59;1.60;;;0.60;;
20181;SDS011;10250;50.756;6.172;2023-02-18T03:43:00;2.17;;;0.67;;
20181;SDS011;10250;50.756;6.172;2023-02-18T03:45:01;1.30;;;0.47;;
20181;SDS011;10250;50.756;6.172;2023-02-18T03:47:03;1.80;;;0.67;;
20181;SDS011;10250;50.756;6.172;2023-02-18T03:49:04;3.83;;;0.80;;
20181;SDS011;10250;50.756;6.172;2023-02-18T03:51:05;4.13;;;0.60;;
20181;SDS011;10250;50.756;6.172;2023-02-18T03:53:06;2.47;;;0.80;;
20181;SDS011;10250;50.756;6.172;2023-02-18T03:55:07;1.53;;;0.60;;
20181;SDS011;10250;50.756;6.172;2023-02-18T03:57:08;1.53;;;0.70;;
20181;SDS011;10250;50.756;6.172;2023-02-18T03:59:10;2.83;;;0.77;;
20181;SDS011;10250;50.756;6.172;2023-02-18T04:01:11;1.37;;;0.63;;
20181;SDS011;10250;50.756;6.172;2023-02-18T04:03:12;4.03;;;0.77;;
20181;SDS011;10250;50.756;6.172;2023-02-18T04:05:13;2.70;;;0.80;;
20181;SDS011;10250;50.756;6.172;2023-02-18T04:07:14;3.20;;;1.00;;
20181;SDS011;10250;50.756;6.172;2023-02-18T04:09:15;2.47;;;0.70;;
20181;SDS011;10250;50.756;6.172;2023-02-18T04:11:16;2.30;;;0.80;;
20181;SDS011;10250;50.756;6.172;2023-02-18T04:13:17;2.90;;;0.93;;
20181;SDS011;10250;50.756;6.172;2023-02-18T04:15:18;2.80;;;1.13;;
20181;SDS011;10250;50.756;6.172;2023-02-18T04:17:19;2.10;;;0.77;;
20181;SDS011;10250;50.756;6.172;2023-02-18T04:19:21;3.00;;;1.00;;
20181;SDS011;10250;50.756;6.172;2023-02-18T04:21:22;2.17;;;1.00;;
20181;SDS011;10250;50.756;6.172;2023-02-18T04:23:23;2.23;;;0.97;;
20181;SDS011;10250;50.756;6.172;2023-02-18T04:25:24;2.93;;;1.00;;
20181;SDS011;10250;50.756;6.172;2023-02-18T04:27:25;1.57;;;0.60;;
20181;SDS011;10250;50.756;6.172;2023-02-18T04:29:26;3.47;;;1.10;;
20181;SDS011;10250;50.756;6.172;2023-02-18T04:31:27;6.07;;;1.40;;
20181;SDS011;10250;50.756;6.172;2023-02-18T04:33:28;3.20;;;1.00;;
20181;SDS011;10250;50.756;6.172;2023-02-18T04:35:29;2.83;;;1.03;;
20181;SDS011;10250;50.756;6.172;2023-02-18T04:37:30;4.23;;;1.20;;
20181;SDS011;10250;50.756;6.172;2023-02-18T04:39:31;3.27;;;1.00;;
20181;SDS011;10250;50.756;6.172;2023-02-18T04:41:32;1.97;;;0.87;;
20181;SDS011;10250;50.756;6.172;2023-02-18T04:43:33;4.67;;;1.13;;
20181;SDS011;10250;50.756;6.172;2023-02-18T04:45:34;2.73;;;0.90;;
20181;SDS011;10250;50.756;6.172;2023-02-18T04:47:35;2.73;;;0.80;;
20181;SDS011;10250;50.756;6.172;2023-02-18T04:49:36;3.40;;;0.90;;
20181;SDS011;10250;50.756;6.172;2023-02-18T04:51:37;1.50;;;0.70;;
20181;SDS011;10250;50.756;6.172;2023-02-18T04:53:38;1.23;;;0.70;;
20181;SDS011;10250;50.756;6.172;2023-02-18T04:55:39;4.20;;;0.90;;
20181;SDS011;10250;50.756;6.172;2023-02-18T04:57:40;3.07;;;1.00;;
20181;SDS011;10250;50.756;6.172;2023-02-18T04:59:41;2.00;;;0.70;;
20181;SDS011;10250;50.756;6.172;2023-02-18T05:01:42;3.17;;;0.90;;
20181;SDS011;10250;50.756;6.172;2023-02-18T05:03:43;1.27;;;0.50;;
20181;SDS011;10250;50.756;6.172;2023-02-18T05:05:47;1.73;;;0.60;;
20181;SDS011;10250;50.756;6.172;2023-02-18T05:07:48;1.53;;;0.80;;
20181;SDS011;10250;50.756;6.172;2023-02-18T05:09:49;2.57;;;0.80;;
20181;SDS011;10250;50.756;6.172;2023-02-18T05:11:50;2.37;;;0.80;;
20181;SDS011;10250;50.756;6.172;2023-02-18T05:13:51;2.30;;;0.73;;
20181;SDS011;10250;50.756;6.172;2023-02-18T05:15:52;1.47;;;0.70;;
20181;SDS011;10250;50.756;6.172;2023-02-18T05:17:53;2.83;;;0.93;;
20181;SDS011;10250;50.756;6.172;2023-02-18T05:19:54;3.03;;;0.97;;
20181;SDS011;10250;50.756;6.172;2023-02-18T05:21:55;2.47;;;0.83;;
20181;SDS011;10250;50.756;6.172;2023-02-18T05:23:56;1.20;;;0.80;;
20181;SDS011;10250;50.756;6.172;2023-02-18T05:25:58;2.50;;;0.90;;
20181;SDS011;10250;50.756;6.172;2023-02-18T05:27:58;2.87;;;0.93;;
20181;SDS011;10250;50.756;6.172;2023-02-18T05:29:59;3.20;;;0.90;;
20181;SDS011;10250;50.756;6.172;2023-02-18T05:32:00;2.47;;;0.90;;
20181;SDS011;10250;50.756;6.172;2023-02-18T05:34:01;1.97;;;0.80;;
20181;SDS011;10250;50.756;6.172;2023-02-18T05:36:02;2.30;;;1.00;;
20181;SDS011;10250;50.756;6.172;2023-02-18T05:38:03;2.60;;;0.73;;
20181;SDS011;10250;50.756;6.172;2023-02-18T05:40:05;4.37;;;1.13;;
20181;SDS011;10250;50.756;6.172;2023-02-18T05:42:06;1.67;;;0.60;;
20181;SDS011;10250;50.756;6.172;2023-02-18T05:44:07;3.23;;;0.97;;
20181;SDS011;10250;50.756;6.172;2023-02-18T05:46:26;1.53;;;0.77;;
20181;SDS011;10250;50.756;6.172;2023-02-18T05:48:27;0.90;;;0.50;;
20181;SDS011;10250;50.756;6.172;2023-02-18T05:50:28;1.10;;;0.60;;
20181;SDS011;10250;50.756;6.172;2023-02-18T05:52:29;2.20;;;0.80;;
20181;SDS011;10250;50.756;6.172;2023-02-18T05:54:30;0.60;;;0.40;;
20181;SDS011;10250;50.756;6.172;2023-02-18T05:56:31;2.13;;;0.90;;
20181;SDS011;10250;50.756;6.172;2023-02-18T05:58:32;1.33;;;0.70;;
20181;SDS011;10250;50.756;6.172;2023-02-18T06:00:33;2.20;;;0.60;;
20181;SDS011;10250;50.756;6.172;2023-02-18T06:02:35;0.73;;;0.40;;
20181;SDS011;10250;50.756;6.172;2023-02-18T06:04:36;1.03;;;0.57;;
20181;SDS011;10250;50.756;6.172;2023-02-18T06:06:36;1.30;;;0.63;;
20181;SDS011;10250;50.756;6.172;2023-02-18T06:08:37;0.80;;;0.50;;
20181;SDS011;10250;50.756;6.172;2023-02-18T06:10:39;1.43;;;0.67;;
20181;SDS011;10250;50.756;6.172;2023-02-18T06:12:40;0.70;;;0.50;;
20181;SDS011;10250;50.756;6.172;2023-02-18T06:14:41;1.33;;;0.50;;
20181;SDS011;10250;50.756;6.172;2023-02-18T06:16:42;1.20;;;0.60;;
20181;SDS011;10250;50.756;6.172;2023-02-18T06:18:43;1.83;;;0.70;;
20181;SDS011;10250;50.756;6.172;2023-02-18T06:20:45;1.13;;;0.50;;
20181;SDS011;10250;50.756;6.172;2023-02-18T06:22:46;1.17;;;0.73;;
20181;SDS011;10250;50.756;6.172;2023-02-18T06:24:47;1.13;;;0.60;;
20181;SDS011;10250;50.756;6.172;2023-02-18T06:26:48;2.80;;;0.80;;
20181;SDS011;10250;50.756;6.172;2023-02-18T06:28:49;2.47;;;0.63;;
20181;SDS011;10250;50.756;6.172;2023-02-18T06:30:50;0.97;;;0.57;;
20181;SDS011;10250;50.756;6.172;2023-02-18T06:32:51;1.40;;;0.53;;
20181;SDS011;10250;50.756;6.172;2023-02-18T06:34:52;3.53;;;0.80;;
20181;SDS011;10250;50.756;6.172;2023-02-18T06:36:53;1.57;;;0.70;;
20181;SDS011;10250;50.756;6.172;2023-02-18T06:38:54;2.80;;;0.80;;
20181;SDS011;10250;50.756;6.172;2023-02-18T06:40:56;1.73;;;0.77;;
20181;SDS011;10250;50.756;6.172;2023-02-18T06:42:57;2.17;;;0.73;;
20181;SDS011;10250;50.756;6.172;2023-02-18T06:44:58;1.67;;;0.57;;
20181;SDS011;10250;50.756;6.172;2023-02-18T06:46:59;2.10;;;0.67;;
20181;SDS011;10250;50.756;6.172;2023-02-18T06:49:00;2.00;;;0.67;;
20181;SDS011;10250;50.756;6.172;2023-02-18T06:51:01;2.33;;;0.70;;
20181;SDS011;10250;50.756;6.172;2023-02-18T06:53:03;0.80;;;0.50;;
20181;SDS011;10250;50.756;6.172;2023-02-18T06:55:04;1.10;;;0.53;;
20181;SDS011;10250;50.756;6.172;2023-02-18T06:57:05;3.57;;;1.03;;
20181;SDS011;10250;50.756;6.172;2023-02-18T06:59:06;1.27;;;0.70;;
20181;SDS011;10250;50.756;6.172;2023-02-18T07:01:07;1.50;;;0.53;;
20181;SDS011;10250;50.756;6.172;2023-02-18T07:03:10;5.13;;;0.80;;
20181;SDS011;10250;50.756;6.172;2023-02-18T07:05:12;1.23;;;0.70;;
20181;SDS011;10250;50.756;6.172;2023-02-18T07:07:13;2.40;;;0.80;;
20181;SDS011;10250;50.756;6.172;2023-02-18T07:09:14;3.27;;;0.67;;
20181;SDS011;10250;50.756;6.172;2023-02-18T07:11:15;3.30;;;0.70;;
20181;SDS011;10250;50.756;6.172;2023-02-18T07:13:16;1.93;;;0.70;;
20181;SDS011;10250;50.756;6.172;2023-02-18T07:15:17;2.07;;;0.67;;
20181;SDS011;10250;50.756;6.172;2023-02-18T07:17:23;0.87;;;0.50;;
20181;SDS011;10250;50.756;6.172;2023-02-18T07:19:24;2.97;;;0.60;;
20181;SDS011;10250;50.756;6.172;2023-02-18T07:21:25;1.07;;;0.60;;
20181;SDS011;10250;50.756;6.172;2023-02-18T07:23:26;2.13;;;0.77;;
20181;SDS011;10250;50.756;6.172;2023-02-18T07:25:26;1.83;;;0.70;;
20181;SDS011;10250;50.756;6.172;2023-02-18T07:27:28;2.27;;;0.80;;
20181;SDS011;10250;50.756;6.172;2023-02-18T07:29:29;1.37;;;0.50;;
20181;SDS011;10250;50.756;6.172;2023-02-18T07:31:29;2.47;;;0.80;;
20181;SDS011;10250;50.756;6.172;2023-02-18T07:33:31;0.90;;;0.57;;
20181;SDS011;10250;50.756;6.172;2023-02-18T07:35:31;3.37;;;0.97;;
20181;SDS011;10250;50.756;6.172;2023-02-18T07:37:32;5.87;;;0.83;;
20181;SDS011;10250;50.756;6.172;2023-02-18T07:39:34;3.27;;;0.80;;
20181;SDS011;10250;50.756;6.172;2023-02-18T07:41:35;4.00;;;0.90;;
20181;SDS011;10250;50.756;6.172;2023-02-18T07:43:36;1.93;;;0.77;;
20181;SDS011;10250;50.756;6.172;2023-02-18T07:45:37;1.77;;;0.70;;
20181;SDS011;10250;50.756;6.172;2023-02-18T07:47:38;4.13;;;0.87;;
20181;SDS011;10250;50.756;6.172;2023-02-18T07:49:41;5.80;;;1.20;;
20181;SDS011;10250;50.756;6.172;2023-02-18T07:51:42;5.07;;;1.17;;
20181;SDS011;10250;50.756;6.172;2023-02-18T07:53:46;4.03;;;1.10;;
20181;SDS011;10250;50.756;6.172;2023-02-18T07:55:47;5.73;;;1.40;;
20181;SDS011;10250;50.756;6.172;2023-02-18T07:57:48;2.77;;;0.93;;
20181;SDS011;10250;50.756;6.172;2023-02-18T07:59:59;11.10;;;1.37;;
20181;SDS011;10250;50.756;6.172;2023-02-18T08:02:01;2.03;;;0.90;;
20181;SDS011;10250;50.756;6.172;2023-02-18T08:04:03;4.20;;;1.00;;
20181;SDS011;10250;50.756;6.172;2023-02-18T08:06:04;5.07;;;1.13;;
20181;SDS011;10250;50.756;6.172;2023-02-18T08:08:05;5.57;;;1.10;;
20181;SDS011;10250;50.756;6.172;2023-02-18T08:10:06;3.93;;;1.10;;
20181;SDS011;10250;50.756;6.172;2023-02-18T08:12:07;3.53;;;1.00;;
20181;SDS011;10250;50.756;6.172;2023-02-18T08:14:08;6.93;;;1.60;;
20181;SDS011;10250;50.756;6.172;2023-02-18T08:16:09;5.60;;;1.37;;
20181;SDS011;10250;50.756;6.172;2023-02-18T08:18:17;2.80;;;0.97;;
20181;SDS011;10250;50.756;6.172;2023-02-18T08:20:19;6.27;;;1.40;;
20181;SDS011;10250;50.756;6.172;2023-02-18T08:22:20;3.40;;;1.03;;
20181;SDS011;10250;50.756;6.172;2023-02-18T08:24:20;5.10;;;1.37;;
20181;SDS011;10250;50.756;6.172;2023-02-18T08:26:21;4.87;;;0.77;;
20181;SDS011;10250;50.756;6.172;2023-02-18T08:28:23;6.40;;;1.10;;
20181;SDS011;10250;50.756;6.172;2023-02-18T08:30:24;5.00;;;1.20;;
20181;SDS011;10250;50.756;6.172;2023-02-18T08:32:26;2.27;;;0.93;;
20181;SDS011;10250;50.756;6.172;2023-02-18T08:34:27;5.90;;;1.20;;
20181;SDS011;10250;50.756;6.172;2023-02-18T08:36:28;4.00;;;1.20;;
20181;SDS011;10250;50.756;6.172;2023-02-18T08:38:30;4.43;;;1.03;;
20181;SDS011;10250;50.756;6.172;2023-02-18T08:40:31;2.73;;;0.90;;
20181;SDS011;10250;50.756;6.172;2023-02-18T08:42:31;4.17;;;1.20;;
20181;SDS011;10250;50.756;6.172;2023-02-18T08:44:32;3.80;;;1.30;;
20181;SDS011;10250;50.756;6.172;2023-02-18T08:46:33;3.40;;;1.10;;
20181;SDS011;10250;50.756;6.172;2023-02-18T08:48:34;4.07;;;1.40;;
20181;SDS011;10250;50.756;6.172;2023-02-18T08:50:35;2.90;;;1.13;;
20181;SDS011;10250;50.756;6.172;2023-02-18T08:52:36;3.53;;;1.10;;
20181;SDS011;10250;50.756;6.172;2023-02-18T08:54:37;5.37;;;1.13;;
20181;SDS011;10250;50.756;6.172;2023-02-18T08:56:38;6.43;;;1.30;;
20181;SDS011;10250;50.756;6.172;2023-02-18T08:58:40;3.13;;;1.07;;
20181;SDS011;10250;50.756;6.172;2023-02-18T09:00:41;3.93;;;1.13;;
20181;SDS011;10250;50.756;6.172;2023-02-18T09:02:42;8.03;;;1.50;;
20181;SDS011;10250;50.756;6.172;2023-02-18T09:04:43;3.73;;;1.07;;
20181;SDS011;10250;50.756;6.172;2023-02-18T09:06:45;5.07;;;1.43;;
20181;SDS011;10250;50.756;6.172;2023-02-18T09:08:46;6.40;;;1.60;;
20181;SDS011;10250;50.756;6.172;2023-02-18T09:10:47;2.20;;;0.90;;
20181;SDS011;10250;50.756;6.172;2023-02-18T09:12:48;6.63;;;1.40;;
20181;SDS011;10250;50.756;6.172;2023-02-18T09:14:49;5.90;;;1.50;;
20181;SDS011;10250;50.756;6.172;2023-02-18T09:16:50;6.27;;;1.23;;
20181;SDS011;10250;50.756;6.172;2023-02-18T09:18:51;4.60;;;1.53;;
20181;SDS011;10250;50.756;6.172;2023-02-18T09:20:54;3.03;;;1.00;;
20181;SDS011;10250;50.756;6.172;2023-02-18T09:22:55;8.20;;;1.50;;
20181;SDS011;10250;50.756;6.172;2023-02-18T09:24:56;7.43;;;1.23;;
20181;SDS011;10250;50.756;6.172;2023-02-18T09:26:57;7.50;;;1.60;;
20181;SDS011;10250;50.756;6.172;2023-02-18T09:28:58;4.40;;;1.33;;
20181;SDS011;10250;50.756;6.172;2023-02-18T09:31:03;2.20;;;0.93;;
20181;SDS011;10250;50.756;6.172;2023-02-18T09:33:05;6.97;;;1.40;;
20181;SDS011;10250;50.756;6.172;2023-02-18T09:35:06;5.57;;;1.60;;
20181;SDS011;10250;50.756;6.172;2023-02-18T09:37:07;4.67;;;1.20;;
20181;SDS011;10250;50.756;6.172;2023-02-18T09:39:08;6.77;;;1.27;;
20181;SDS011;10250;50.756;6.172;2023-02-18T09:43:37;3.20;;;1.10;;
20181;SDS011;10250;50.756;6.172;2023-02-18T09:45:42;5.73;;;1.57;;
20181;SDS011;10250;50.756;6.172;2023-02-18T09:47:43;4.27;;;1.33;;
20181;SDS011;10250;50.756;6.172;2023-02-18T09:49:48;6.60;;;1.60;;
20181;SDS011;10250;50.756;6.172;2023-02-18T09:51:52;5.07;;;1.30;;
20181;SDS011;10250;50.756;6.172;2023-02-18T09:53:53;2.97;;;1.30;;
20181;SDS011;10250;50.756;6.172;2023-02-18T09:55:55;9.53;;;1.60;;
20181;SDS011;10250;50.756;6.172;2023-02-18T09:58:08;9.77;;;1.60;;
20181;SDS011;10250;50.756;6.172;2023-02-18T10:00:14;4.80;;;1.40;;
20181;SDS011;10250;50.756;6.172;2023-02-18T10:02:15;4.40;;;1.40;;
20181;SDS011;10250;50.756;6.172;2023-02-18T10:04:24;5.53;;;1.33;;
20181;SDS011;10250;50.756;6.172;2023-02-18T10:06:29;5.80;;;1.47;;
20181;SDS011;10250;50.756;6.172;2023-02-18T10:08:32;5.83;;;1.67;;
20181;SDS011;10250;50.756;6.172;2023-02-18T10:12:35;5.47;;;1.60;;
20181;SDS011;10250;50.756;6.172;2023-02-18T10:14:36;5.57;;;1.70;;
20181;SDS011;10250;50.756;6.172;2023-02-18T10:16:37;5.83;;;1.87;;
20181;SDS011;10250;50.756;6.172;2023-02-18T10:18:40;11.20;;;2.03;;
20181;SDS011;10250;50.756;6.172;2023-02-18T10:20:41;4.63;;;1.37;;
20181;SDS011;10250;50.756;6.172;2023-02-18T10:22:42;4.13;;;1.27;;
20181;SDS011;10250;50.756;6.172;2023-02-18T10:24:51;5.27;;;1.33;;
20181;SDS011;10250;50.756;6.172;2023-02-18T10:26:53;4.23;;;1.37;;
20181;SDS011;10250;50.756;6.172;2023-02-18T10:28:54;3.87;;;1.40;;
20181;SDS011;10250;50.756;6.172;2023-02-18T10:30:58;4.03;;;1.30;;
20181;SDS011;10250;50.756;6.172;2023-02-18T10:33:26;3.73;;;1.20;;
20181;SDS011;10250;50.756;6.172;2023-02-18T10:35:23;6.40;;;1.53;;
20181;SDS011;10250;50.756;6.172;2023-02-18T10:50:49;1.77;;;0.90;;
20181;SDS011;10250;50.756;6.172;2023-02-18T10:52:50;3.27;;;0.87;;
20181;SDS011;10250;50.756;6.172;2023-02-18T10:54:57;1.27;;;0.67;;
20181;SDS011;10250;50.756;6.172;2023-02-18T10:56:59;3.03;;;0.90;;
20181;SDS011;10250;50.756;6.172;2023-02-18T10:59:11;2.13;;;0.87;;
20181;SDS011;10250;50.756;6.172;2023-02-18T11:01:14;4.70;;;1.17;;
20181;SDS011;10250;50.756;6.172;2023-02-18T11:03:17;2.57;;;0.90;;
20181;SDS011;10250;50.756;6.172;2023-02-18T11:05:21;3.87;;;0.90;;
20181;SDS011;10250;50.756;6.172;2023-02-18T11:07:29;3.37;;;0.93;;
20181;SDS011;10250;50.756;6.172;2023-02-18T11:09:38;2.27;;;0.83;;
20181;SDS011;10250;50.756;6.172;2023-02-18T11:11:40;3.07;;;0.90;;
20181;SDS011;10250;50.756;6.172;2023-02-18T11:13:41;3.53;;;0.90;;
20181;SDS011;10250;50.756;6.172;2023-02-18T11:15:53;8.60;;;1.10;;
20181;SDS011;10250;50.756;6.172;2023-02-18T11:17:55;2.73;;;0.90;;
20181;SDS011;10250;50.756;6.172;2023-02-18T11:19:59;2.97;;;0.80;;
20181;SDS011;10250;50.756;6.172;2023-02-18T11:22:13;2.73;;;0.73;;
20181;SDS011;10250;50.756;6.172;2023-02-18T11:24:15;3.17;;;0.90;;
20181;SDS011;10250;50.756;6.172;2023-02-18T11:26:17;3.43;;;0.87;;
20181;SDS011;10250;50.756;6.172;2023-02-18T11:28:26;2.90;;;0.90;;
20181;SDS011;10250;50.756;6.172;2023-02-18T11:32:33;1.90;;;0.90;;
20181;SDS011;10250;50.756;6.172;2023-02-18T11:34:35;3.40;;;0.93;;
20181;SDS011;10250;50.756;6.172;2023-02-18T11:36:36;2.13;;;0.83;;
20181;SDS011;10250;50.756;6.172;2023-02-18T11:40:42;1.40;;;0.50;;
20181;SDS011;10250;50.756;6.172;2023-02-18T11:43:01;2.07;;;0.70;;
20181;SDS011;10250;50.756;6.172;2023-02-18T11:45:02;2.40;;;0.97;;
20181;SDS011;10250;50.756;6.172;2023-02-18T11:47:25;1.43;;;0.60;;
20181;SDS011;10250;50.756;6.172;2023-02-18T11:49:25;2.57;;;0.93;;
20181;SDS011;10250;50.756;6.172;2023-02-18T11:55:28;3.60;;;1.00;;
20181;SDS011;10250;50.756;6.172;2023-02-18T11:57:33;4.47;;;0.90;;
20181;SDS011;10250;50.756;6.172;2023-02-18T11:59:35;2.97;;;0.90;;
20181;SDS011;10250;50.756;6.172;2023-02-18T12:01:41;2.13;;;0.70;;
20181;SDS011;10250;50.756;6.172;2023-02-18T12:03:45;2.90;;;0.90;;
20181;SDS011;10250;50.756;6.172;2023-02-18T12:05:48;2.30;;;0.97;;
20181;SDS011;10250;50.756;6.172;2023-02-18T12:09:54;2.27;;;0.80;;
20181;SDS011;10250;50.756;6.172;2023-02-18T12:11:57;2.67;;;1.00;;
20181;SDS011;10250;50.756;6.172;2023-02-18T12:13:59;5.23;;;1.33;;
20181;SDS011;10250;50.756;6.172;2023-02-18T12:18:22;2.17;;;0.77;;
20181;SDS011;10250;50.756;6.172;2023-02-18T12:22:44;5.83;;;1.20;;
20181;SDS011;10250;50.756;6.172;2023-02-18T12:26:57;2.10;;;0.90;;
20181;SDS011;10250;50.756;6.172;2023-02-18T12:31:08;3.03;;;0.90;;
20181;SDS011;10250;50.756;6.172;2023-02-18T12:46:15;2.60;;;1.03;;
20181;SDS011;10250;50.756;6.172;2023-02-18T12:48:23;3.13;;;1.07;;
20181;SDS011;10250;50.756;6.172;2023-02-18T12:59:03;2.87;;;1.07;;
20181;SDS011;10250;50.756;6.172;2023-02-18T13:01:17;1.50;;;0.70;;
20181;SDS011;10250;50.756;6.172;2023-02-18T13:03:38;5.17;;;1.17;;
20181;SDS011;10250;50.756;6.172;2023-02-18T13:12:13;2.37;;;0.80;;
20181;SDS011;10250;50.756;6.172;2023-02-18T13:14:27;2.93;;;0.93;;
20181;SDS011;10250;50.756;6.172;2023-02-18T13:16:29;2.23;;;0.80;;
20181;SDS011;10250;50.756;6.172;2023-02-18T13:18:33;2.47;;;0.67;;
20181;SDS011;10250;50.756;6.172;2023-02-18T13:20:37;2.73;;;0.90;;
20181;SDS011;10250;50.756;6.172;2023-02-18T13:22:39;2.73;;;1.10;;
20181;SDS011;10250;50.756;6.172;2023-02-18T13:24:44;1.60;;;0.83;;
20181;SDS011;10250;50.756;6.172;2023-02-18T13:26:45;2.57;;;1.17;;
20181;SDS011;10250;50.756;6.172;2023-02-18T13:39:52;2.93;;;1.07;;
20181;SDS011;10250;50.756;6.172;2023-02-18T13:44:38;3.53;;;0.97;;
20181;SDS011;10250;50.756;6.172;2023-02-18T13:46:51;2.27;;;0.80;;
20181;SDS011;10250;50.756;6.172;2023-02-18T13:50:53;1.67;;;0.60;;
20181;SDS011;10250;50.756;6.172;2023-02-18T13:55:15;2.93;;;1.20;;
20181;SDS011;10250;50.756;6.172;2023-02-18T13:57:21;3.53;;;1.13;;
20181;SDS011;10250;50.756;6.172;2023-02-18T13:59:32;3.03;;;1.03;;
20181;SDS011;10250;50.756;6.172;2023-02-18T14:01:36;2.97;;;0.77;;
20181;SDS011;10250;50.756;6.172;2023-02-18T14:05:42;2.83;;;1.00;;
20181;SDS011;10250;50.756;6.172;2023-02-18T14:07:44;2.77;;;1.00;;
20181;SDS011;10250;50.756;6.172;2023-02-18T14:09:46;4.47;;;1.40;;
20181;SDS011;10250;50.756;6.172;2023-02-18T14:11:47;2.40;;;0.97;;
20181;SDS011;10250;50.756;6.172;2023-02-18T14:14:30;2.93;;;1.00;;
20181;SDS011;10250;50.756;6.172;2023-02-18T14:16:16;3.67;;;1.20;;
20181;SDS011;10250;50.756;6.172;2023-02-18T14:18:22;1.57;;;0.87;;
20181;SDS011;10250;50.756;6.172;2023-02-18T14:20:29;2.40;;;0.93;;
20181;SDS011;10250;50.756;6.172;2023-02-18T14:24:48;2.73;;;1.07;;
20181;SDS011;10250;50.756;6.172;2023-02-18T14:26:49;2.13;;;0.93;;
20181;SDS011;10250;50.756;6.172;2023-02-18T14:28:54;2.20;;;1.00;;
20181;SDS011;10250;50.756;6.172;2023-02-18T14:30:59;2.63;;;1.00;;